sensor_id;sensor_type;location;lat;lon;timestamp;P1;durP1;ratioP1;P2;durP2;ratioP2
2652;SDS011;1336;48.692;9.144;2024-01-11T06:00:05;60.83;;;51.97;;
2652;SDS011;1336;48.692;9.144;2024-01-11T06:00:57;59.08;;;50.17;;
2652;SDS011;1336;48.692;9.144;2024-01-11T06:01:49;58.60;;;51.15;;
2652;SDS011;1336;48.692;9.144;2024-01-11T06:02:40;59.70;;;52.75;;
2652;SDS011;1336;48.692;9.144;2024-01-11T06:03:32;58.42;;;51.08;;
2652;SDS011;1336;48.692;9.144;2024-01-11T06:04:24;59.33;;;50.15;;
2652;SDS011;1336;48.692;9.144;2024-01-11T06:05:16;56.30;;;48.55;;
2652;SDS011;1336;48.692;9.144;2024-01-11T06:06:07;54.20;;;45.85;;
2652;SDS011;1336;48.692;9.144;2024-01-11T06:06:58;53.92;;;46.55;;
2652;SDS011;1336;48.692;9.144;2024-01-11T06:07:50;48.90;;;42.90;;
2652;SDS011;1336;48.692;9.144;2024-01-11T06:08:42;46.35;;;41.08;;
2652;SDS011;1336;48.692;9.144;2024-01-11T06:09:33;47.13;;;42.03;;
2652;SDS011;1336;48.692;9.144;2024-01-11T06:10:27;44.03;;;39.30;;
2652;SDS011;1336;48.692;9.144;2024-01-11T06:11:21;41.45;;;37.10;;
2652;SDS011;1336;48.692;9.144;2024-01-11T06:12:13;42.03;;;37.72;;
2652;SDS011;1336;48.692;9.144;2024-01-11T06:13:05;41.25;;;36.90;;
2652;SDS011;1336;48.692;9.144;2024-01-11T06:13:56;41.13;;;36.83;;
2652;SDS011;1336;48.692;9.144;2024-01-11T06:14:48;44.40;;;39.70;;
2652;SDS011;1336;48.692;9.144;2024-01-11T06:15:41;42.30;;;37.90;;
2652;SDS011;1336;48.692;9.144;2024-01-11T06:16:32;40.35;;;36.05;;
2652;SDS011;1336;48.692;9.144;2024-01-11T06:17:24;43.45;;;38.80;;
2652;SDS011;1336;48.692;9.144;2024-01-11T06:18:16;42.22;;;37.72;;
2652;SDS011;1336;48.692;9.144;2024-01-11T06:19:07;42.28;;;36.42;;
2652;SDS011;1336;48.692;9.144;2024-01-11T06:19:59;42.47;;;37.92;;
2652;SDS011;1336;48.692;9.144;2024-01-11T06:20:50;40.42;;;35.65;;
2652;SDS011;1336;48.692;9.144;2024-01-11T06:21:41;40.78;;;36.70;;
2652;SDS011;1336;48.692;9.144;2024-01-11T06:22:33;41.53;;;36.97;;
2652;SDS011;1336;48.692;9.144;2024-01-11T06:23:25;40.40;;;36.13;;
2652;SDS011;1336;48.692;9.144;2024-01-11T06:24:17;41.30;;;36.95;;
2652;SDS011;1336;48.692;9.144;2024-01-11T06:25:09;43.38;;;38.85;;
2652;SDS011;1336;48.692;9.144;2024-01-11T06:26:01;44.05;;;39.35;;
2652;SDS011;1336;48.692;9.144;2024-01-11T06:26:53;41.45;;;37.05;;
2652;SDS011;1336;48.692;9.144;2024-01-11T06:27:44;43.97;;;39.17;;
2652;SDS011;1336;48.692;9.144;2024-01-11T06:28:36;44.67;;;39.80;;
2652;SDS011;1336;48.692;9.144;2024-01-11T06:29:27;45.03;;;40.35;;
2652;SDS011;1336;48.692;9.144;2024-01-11T06:30:20;44.25;;;39.75;;
2652;SDS011;1336;48.692;9.144;2024-01-11T06:31:12;45.85;;;40.95;;
2652;SDS011;1336;48.692;9.144;2024-01-11T06:32:03;46.35;;;40.67;;
2652;SDS011;1336;48.692;9.144;2024-01-11T06:32:55;44.90;;;40.08;;
2652;SDS011;1336;48.692;9.144;2024-01-11T06:33:47;45.50;;;40.60;;
2652;SDS011;1336;48.692;9.144;2024-01-11T06:34:39;47.35;;;42.55;;
2652;SDS011;1336;48.692;9.144;2024-01-11T06:35:33;43.95;;;39.25;;
2652;SDS011;1336;48.692;9.144;2024-01-11T06:36:25;44.20;;;39.60;;
2652;SDS011;1336;48.692;9.144;2024-01-11T06:37:17;45.17;;;40.38;;
2652;SDS011;1336;48.692;9.144;2024-01-11T06:38:08;43.13;;;38.92;;
2652;SDS011;1336;48.692;9.144;2024-01-11T06:39:00;42.17;;;37.70;;
2652;SDS011;1336;48.692;9.144;2024-01-11T06:39:54;42.85;;;38.45;;
2652;SDS011;1336;48.692;9.144;2024-01-11T06:40:45;41.03;;;36.83;;
2652;SDS011;1336;48.692;9.144;2024-01-11T06:41:37;41.60;;;37.25;;
2652;SDS011;1336;48.692;9.144;2024-01-11T06:42:29;42.22;;;37.97;;
2652;SDS011;1336;48.692;9.144;2024-01-11T06:43:20;41.80;;;37.67;;
2652;SDS011;1336;48.692;9.144;2024-01-11T06:44:12;41.22;;;36.97;;
2652;SDS011;1336;48.692;9.144;2024-01-11T06:45:04;42.38;;;37.85;;
2652;SDS011;1336;48.692;9.144;2024-01-11T06:45:55;41.92;;;37.63;;
2652;SDS011;1336;48.692;9.144;2024-01-11T06:46:48;39.10;;;35.17;;
2652;SDS011;1336;48.692;9.144;2024-01-11T06:47:39;42.22;;;37.75;;
2652;SDS011;1336;48.692;9.144;2024-01-11T06:48:30;41.45;;;37.25;;
2652;SDS011;1336;48.692;9.144;2024-01-11T06:49:23;41.30;;;36.90;;
2652;SDS011;1336;48.692;9.144;2024-01-11T06:50:14;41.90;;;37.65;;
2652;SDS011;1336;48.692;9.144;2024-01-11T06:51:05;42.85;;;38.45;;
2652;SDS011;1336;48.692;9.144;2024-01-11T06:51:58;44.00;;;39.40;;
2652;SDS011;1336;48.692;9.144;2024-01-11T06:52:49;44.10;;;39.70;;
2652;SDS011;1336;48.692;9.144;2024-01-11T06:53:41;43.42;;;38.83;;
2652;SDS011;1336;48.692;9.144;2024-01-11T06:54:32;41.40;;;37.08;;
2652;SDS011;1336;48.692;9.144;2024-01-11T06:55:23;43.78;;;39.17;;
2652;SDS011;1336;48.692;9.144;2024-01-11T06:56:15;44.13;;;38.78;;
2652;SDS011;1336;48.692;9.144;2024-01-11T06:57:07;42.60;;;38.03;;
2652;SDS011;1336;48.692;9.144;2024-01-11T06:57:59;43.38;;;38.83;;
2652;SDS011;1336;48.692;9.144;2024-01-11T06:58:52;44.15;;;39.72;;
2652;SDS011;1336;48.692;9.144;2024-01-11T06:59:43;46.13;;;40.83;;
2652;SDS011;1336;48.692;9.144;2024-01-11T07:00:36;45.35;;;40.65;;
2652;SDS011;1336;48.692;9.144;2024-01-11T07:01:32;43.45;;;38.95;;
2652;SDS011;1336;48.692;9.144;2024-01-11T07:02:26;44.25;;;39.65;;
2652;SDS011;1336;48.692;9.144;2024-01-11T07:03:17;44.20;;;39.67;;
2652;SDS011;1336;48.692;9.144;2024-01-11T07:04:08;44.55;;;39.95;;
2652;SDS011;1336;48.692;9.144;2024-01-11T07:05:00;46.42;;;41.47;;
2652;SDS011;1336;48.692;9.144;2024-01-11T07:05:52;43.70;;;39.25;;
2652;SDS011;1336;48.692;9.144;2024-01-11T07:06:44;44.38;;;39.55;;
2652;SDS011;1336;48.692;9.144;2024-01-11T07:07:36;45.50;;;40.90;;
2652;SDS011;1336;48.692;9.144;2024-01-11T07:08:27;44.30;;;39.80;;
2652;SDS011;1336;48.692;9.144;2024-01-11T07:09:18;43.17;;;38.88;;
2652;SDS011;1336;48.692;9.144;2024-01-11T07:10:10;43.45;;;38.97;;
2652;SDS011;1336;48.692;9.144;2024-01-11T07:11:02;41.33;;;37.03;;
2652;SDS011;1336;48.692;9.144;2024-01-11T07:11:53;42.60;;;38.20;;
2652;SDS011;1336;48.692;9.144;2024-01-11T07:12:47;43.80;;;39.25;;
2652;SDS011;1336;48.692;9.144;2024-01-11T07:13:39;42.40;;;38.03;;
2652;SDS011;1336;48.692;9.144;2024-01-11T07:14:32;43.38;;;38.88;;
2652;SDS011;1336;48.692;9.144;2024-01-11T07:15:23;41.60;;;37.30;;
2652;SDS011;1336;48.692;9.144;2024-01-11T07:16:16;40.67;;;36.47;;
2652;SDS011;1336;48.692;9.144;2024-01-11T07:17:11;41.92;;;37.67;;
2652;SDS011;1336;48.692;9.144;2024-01-11T07:18:04;43.22;;;38.80;;
2652;SDS011;1336;48.692;9.144;2024-01-11T07:18:58;41.10;;;36.88;;
2652;SDS011;1336;48.692;9.144;2024-01-11T07:19:49;43.55;;;39.15;;
2652;SDS011;1336;48.692;9.144;2024-01-11T07:20:41;44.42;;;39.90;;
2652;SDS011;1336;48.692;9.144;2024-01-11T07:21:35;43.50;;;39.00;;
2652;SDS011;1336;48.692;9.144;2024-01-11T07:22:26;42.15;;;37.60;;
2652;SDS011;1336;48.692;9.144;2024-01-11T07:23:18;42.95;;;38.10;;
2652;SDS011;1336;48.692;9.144;2024-01-11T07:24:10;41.70;;;37.40;;
2652;SDS011;1336;48.692;9.144;2024-01-11T07:25:01;42.78;;;38.38;;
2652;SDS011;1336;48.692;9.144;2024-01-11T07:25:57;43.17;;;38.72;;
2652;SDS011;1336;48.692;9.144;2024-01-11T07:26:49;44.38;;;39.70;;
2652;SDS011;1336;48.692;9.144;2024-01-11T07:27:42;43.13;;;38.67;;
2652;SDS011;1336;48.692;9.144;2024-01-11T07:28:33;44.25;;;39.58;;
2652;SDS011;1336;48.692;9.144;2024-01-11T07:29:26;42.80;;;38.22;;
2652;SDS011;1336;48.692;9.144;2024-01-11T07:30:19;44.47;;;39.75;;
2652;SDS011;1336;48.692;9.144;2024-01-11T07:31:10;42.60;;;38.20;;
2652;SDS011;1336;48.692;9.144;2024-01-11T07:32:02;43.78;;;39.20;;
2652;SDS011;1336;48.692;9.144;2024-01-11T07:32:55;43.88;;;39.38;;
2652;SDS011;1336;48.692;9.144;2024-01-11T07:33:47;43.95;;;39.35;;
2652;SDS011;1336;48.692;9.144;2024-01-11T07:34:40;46.92;;;41.83;;
2652;SDS011;1336;48.692;9.144;2024-01-11T07:35:31;46.03;;;41.15;;
2652;SDS011;1336;48.692;9.144;2024-01-11T07:36:23;44.15;;;39.70;;
2652;SDS011;1336;48.692;9.144;2024-01-11T07:37:15;43.97;;;39.47;;
2652;SDS011;1336;48.692;9.144;2024-01-11T07:38:06;44.50;;;39.90;;
2652;SDS011;1336;48.692;9.144;2024-01-11T07:38:58;44.28;;;39.67;;
2652;SDS011;1336;48.692;9.144;2024-01-11T07:39:49;47.17;;;42.20;;
2652;SDS011;1336;48.692;9.144;2024-01-11T07:40:41;44.00;;;39.50;;
2652;SDS011;1336;48.692;9.144;2024-01-11T07:41:33;48.00;;;43.10;;
2652;SDS011;1336;48.692;9.144;2024-01-11T07:42:24;46.03;;;41.17;;
2652;SDS011;1336;48.692;9.144;2024-01-11T07:43:16;47.22;;;42.25;;
2652;SDS011;1336;48.692;9.144;2024-01-11T07:44:07;45.35;;;40.50;;
2652;SDS011;1336;48.692;9.144;2024-01-11T07:44:59;46.35;;;41.65;;
2652;SDS011;1336;48.692;9.144;2024-01-11T07:45:50;46.80;;;41.80;;
2652;SDS011;1336;48.692;9.144;2024-01-11T07:46:42;46.33;;;41.33;;
2652;SDS011;1336;48.692;9.144;2024-01-11T07:47:34;45.80;;;41.08;;
2652;SDS011;1336;48.692;9.144;2024-01-11T07:48:25;44.72;;;40.08;;
2652;SDS011;1336;48.692;9.144;2024-01-11T07:49:17;44.47;;;39.88;;
2652;SDS011;1336;48.692;9.144;2024-01-11T07:50:10;46.22;;;41.53;;
2652;SDS011;1336;48.692;9.144;2024-01-11T07:51:02;44.05;;;39.55;;
2652;SDS011;1336;48.692;9.144;2024-01-11T07:51:53;44.38;;;39.70;;
2652;SDS011;1336;48.692;9.144;2024-01-11T07:52:45;42.70;;;38.40;;
2652;SDS011;1336;48.692;9.144;2024-01-11T07:53:36;44.85;;;40.15;;
2652;SDS011;1336;48.692;9.144;2024-01-11T07:54:28;43.17;;;38.75;;
2652;SDS011;1336;48.692;9.144;2024-01-11T07:55:19;44.60;;;39.83;;
2652;SDS011;1336;48.692;9.144;2024-01-11T07:56:13;43.67;;;39.17;;
2652;SDS011;1336;48.692;9.144;2024-01-11T07:57:05;43.67;;;39.08;;
2652;SDS011;1336;48.692;9.144;2024-01-11T07:57:57;42.25;;;37.72;;
2652;SDS011;1336;48.692;9.144;2024-01-11T07:58:48;43.33;;;38.88;;
2652;SDS011;1336;48.692;9.144;2024-01-11T07:59:39;42.33;;;37.90;;
2652;SDS011;1336;48.692;9.144;2024-01-11T08:00:31;42.53;;;38.20;;
2652;SDS011;1336;48.692;9.144;2024-01-11T08:01:22;44.25;;;39.63;;
2652;SDS011;1336;48.692;9.144;2024-01-11T08:02:13;43.33;;;38.83;;
2652;SDS011;1336;48.692;9.144;2024-01-11T08:03:06;41.83;;;37.42;;
2652;SDS011;1336;48.692;9.144;2024-01-11T08:03:58;42.45;;;37.97;;
2652;SDS011;1336;48.692;9.144;2024-01-11T08:04:54;44.00;;;39.50;;
2652;SDS011;1336;48.692;9.144;2024-01-11T08:05:45;44.72;;;39.72;;
2652;SDS011;1336;48.692;9.144;2024-01-11T08:06:36;44.63;;;40.05;;
2652;SDS011;1336;48.692;9.144;2024-01-11T08:07:28;43.85;;;39.35;;
2652;SDS011;1336;48.692;9.144;2024-01-11T08:08:19;45.92;;;41.20;;
2652;SDS011;1336;48.692;9.144;2024-01-11T08:09:12;46.22;;;41.38;;
2652;SDS011;1336;48.692;9.144;2024-01-11T08:10:04;44.00;;;39.40;;
2652;SDS011;1336;48.692;9.144;2024-01-11T08:10:56;44.90;;;40.13;;
2652;SDS011;1336;48.692;9.144;2024-01-11T08:11:48;45.67;;;40.95;;
2652;SDS011;1336;48.692;9.144;2024-01-11T08:12:39;46.67;;;41.58;;
2652;SDS011;1336;48.692;9.144;2024-01-11T08:13:31;52.22;;;46.92;;
2652;SDS011;1336;48.692;9.144;2024-01-11T08:14:24;50.03;;;44.88;;
2652;SDS011;1336;48.692;9.144;2024-01-11T08:15:15;51.85;;;46.25;;
2652;SDS011;1336;48.692;9.144;2024-01-11T08:16:07;55.03;;;49.30;;
2652;SDS011;1336;48.692;9.144;2024-01-11T08:16:59;55.47;;;49.28;;
2652;SDS011;1336;48.692;9.144;2024-01-11T08:17:53;49.83;;;44.78;;
2652;SDS011;1336;48.692;9.144;2024-01-11T08:18:44;50.08;;;44.78;;
2652;SDS011;1336;48.692;9.144;2024-01-11T08:19:38;49.13;;;44.05;;
2652;SDS011;1336;48.692;9.144;2024-01-11T08:20:31;51.33;;;45.95;;
2652;SDS011;1336;48.692;9.144;2024-01-11T08:21:22;49.15;;;43.85;;
2652;SDS011;1336;48.692;9.144;2024-01-11T08:22:14;51.95;;;46.42;;
2652;SDS011;1336;48.692;9.144;2024-01-11T08:23:08;50.25;;;44.92;;
2652;SDS011;1336;48.692;9.144;2024-01-11T08:23:59;51.72;;;46.33;;
2652;SDS011;1336;48.692;9.144;2024-01-11T08:24:52;51.90;;;45.67;;
2652;SDS011;1336;48.692;9.144;2024-01-11T08:25:43;54.40;;;48.70;;
2652;SDS011;1336;48.692;9.144;2024-01-11T08:26:34;52.15;;;46.70;;
2652;SDS011;1336;48.692;9.144;2024-01-11T08:27:27;52.17;;;46.58;;
2652;SDS011;1336;48.692;9.144;2024-01-11T08:28:18;54.38;;;46.92;;
2652;SDS011;1336;48.692;9.144;2024-01-11T08:29:10;50.60;;;45.25;;
2652;SDS011;1336;48.692;9.144;2024-01-11T08:30:03;56.40;;;46.60;;
2652;SDS011;1336;48.692;9.144;2024-01-11T08:30:54;53.35;;;47.75;;
2652;SDS011;1336;48.692;9.144;2024-01-11T08:31:46;54.20;;;48.53;;
2652;SDS011;1336;48.692;9.144;2024-01-11T08:32:38;53.67;;;48.10;;
2652;SDS011;1336;48.692;9.144;2024-01-11T08:33:29;56.58;;;50.70;;
2652;SDS011;1336;48.692;9.144;2024-01-11T08:34:20;55.67;;;49.88;;
2652;SDS011;1336;48.692;9.144;2024-01-11T08:35:13;52.85;;;47.28;;
2652;SDS011;1336;48.692;9.144;2024-01-11T08:36:05;55.88;;;49.88;;
2652;SDS011;1336;48.692;9.144;2024-01-11T08:36:57;50.45;;;45.25;;
2652;SDS011;1336;48.692;9.144;2024-01-11T08:37:48;54.20;;;48.42;;
2652;SDS011;1336;48.692;9.144;2024-01-11T08:38:41;54.33;;;48.55;;
2652;SDS011;1336;48.692;9.144;2024-01-11T08:39:32;54.47;;;48.53;;
2652;SDS011;1336;48.692;9.144;2024-01-11T08:40:23;54.85;;;49.13;;
2652;SDS011;1336;48.692;9.144;2024-01-11T08:41:16;54.58;;;48.35;;
2652;SDS011;1336;48.692;9.144;2024-01-11T08:42:07;54.28;;;48.58;;
2652;SDS011;1336;48.692;9.144;2024-01-11T08:42:58;54.63;;;48.88;;
2652;SDS011;1336;48.692;9.144;2024-01-11T08:43:51;55.47;;;49.47;;
2652;SDS011;1336;48.692;9.144;2024-01-11T08:44:43;53.70;;;47.90;;
2652;SDS011;1336;48.692;9.144;2024-01-11T08:45:35;53.67;;;47.50;;
2652;SDS011;1336;48.692;9.144;2024-01-11T08:46:26;52.47;;;46.88;;
2652;SDS011;1336;48.692;9.144;2024-01-11T08:47:20;52.60;;;47.20;;
2652;SDS011;1336;48.692;9.144;2024-01-11T08:48:12;54.50;;;48.75;;
2652;SDS011;1336;48.692;9.144;2024-01-11T08:49:03;52.03;;;46.38;;
2652;SDS011;1336;48.692;9.144;2024-01-11T08:49:56;53.42;;;47.78;;
2652;SDS011;1336;48.692;9.144;2024-01-11T08:50:47;54.80;;;48.88;;
2652;SDS011;1336;48.692;9.144;2024-01-11T08:51:41;52.90;;;47.20;;
2652;SDS011;1336;48.692;9.144;2024-01-11T08:52:32;53.42;;;47.50;;
2652;SDS011;1336;48.692;9.144;2024-01-11T08:53:24;54.63;;;48.65;;
2652;SDS011;1336;48.692;9.144;2024-01-11T08:54:15;54.38;;;45.78;;
2652;SDS011;1336;48.692;9.144;2024-01-11T08:55:07;51.70;;;46.20;;
2652;SDS011;1336;48.692;9.144;2024-01-11T08:55:59;54.30;;;48.38;;
2652;SDS011;1336;48.692;9.144;2024-01-11T08:56:50;53.67;;;47.85;;
2652;SDS011;1336;48.692;9.144;2024-01-11T08:57:43;53.13;;;46.55;;
2652;SDS011;1336;48.692;9.144;2024-01-11T08:58:34;52.65;;;46.97;;
2652;SDS011;1336;48.692;9.144;2024-01-11T08:59:26;53.50;;;47.75;;
2652;SDS011;1336;48.692;9.144;2024-01-11T09:00:17;53.50;;;47.92;;
2652;SDS011;1336;48.692;9.144;2024-01-11T09:01:10;53.58;;;47.53;;
2652;SDS011;1336;48.692;9.144;2024-01-11T09:02:02;53.92;;;48.15;;
2652;SDS011;1336;48.692;9.144;2024-01-11T09:02:54;53.22;;;47.65;;
2652;SDS011;1336;48.692;9.144;2024-01-11T09:03:45;53.60;;;47.90;;
2652;SDS011;1336;48.692;9.144;2024-01-11T09:04:38;53.17;;;47.35;;
2652;SDS011;1336;48.692;9.144;2024-01-11T09:05:30;54.47;;;48.58;;
2652;SDS011;1336;48.692;9.144;2024-01-11T09:06:21;54.47;;;46.72;;
2652;SDS011;1336;48.692;9.144;2024-01-11T09:07:14;51.25;;;45.75;;
2652;SDS011;1336;48.692;9.144;2024-01-11T09:08:06;53.70;;;47.85;;
2652;SDS011;1336;48.692;9.144;2024-01-11T09:08:58;52.53;;;45.85;;
2652;SDS011;1336;48.692;9.144;2024-01-11T09:09:49;52.83;;;47.20;;
2652;SDS011;1336;48.692;9.144;2024-01-11T09:10:41;52.67;;;46.92;;
2652;SDS011;1336;48.692;9.144;2024-01-11T09:11:32;53.80;;;47.97;;
2652;SDS011;1336;48.692;9.144;2024-01-11T09:12:24;54.63;;;48.90;;
2652;SDS011;1336;48.692;9.144;2024-01-11T09:13:15;54.30;;;48.28;;
2652;SDS011;1336;48.692;9.144;2024-01-11T09:14:06;50.70;;;45.00;;
2652;SDS011;1336;48.692;9.144;2024-01-11T09:15:01;52.75;;;47.15;;
2652;SDS011;1336;48.692;9.144;2024-01-11T09:15:52;51.75;;;46.13;;
2652;SDS011;1336;48.692;9.144;2024-01-11T09:16:43;52.40;;;45.65;;
2652;SDS011;1336;48.692;9.144;2024-01-11T09:17:36;52.28;;;46.55;;
2652;SDS011;1336;48.692;9.144;2024-01-11T09:18:28;51.28;;;45.83;;
2652;SDS011;1336;48.692;9.144;2024-01-11T09:19:20;48.25;;;42.95;;
2652;SDS011;1336;48.692;9.144;2024-01-11T09:20:12;51.22;;;45.83;;
2652;SDS011;1336;48.692;9.144;2024-01-11T09:21:04;48.88;;;43.47;;
2652;SDS011;1336;48.692;9.144;2024-01-11T09:21:55;53.38;;;46.92;;
2652;SDS011;1336;48.692;9.144;2024-01-11T09:22:47;50.72;;;44.70;;
2652;SDS011;1336;48.692;9.144;2024-01-11T09:23:39;50.88;;;43.80;;
2652;SDS011;1336;48.692;9.144;2024-01-11T09:24:30;50.72;;;44.15;;
2652;SDS011;1336;48.692;9.144;2024-01-11T09:25:22;53.00;;;44.25;;
2652;SDS011;1336;48.692;9.144;2024-01-11T09:26:14;54.67;;;44.65;;
2652;SDS011;1336;48.692;9.144;2024-01-11T09:27:05;52.05;;;45.20;;
2652;SDS011;1336;48.692;9.144;2024-01-11T09:27:57;51.53;;;45.50;;
2652;SDS011;1336;48.692;9.144;2024-01-11T09:28:49;53.85;;;46.00;;
2652;SDS011;1336;48.692;9.144;2024-01-11T09:29:42;54.35;;;45.33;;
2652;SDS011;1336;48.692;9.144;2024-01-11T09:30:33;52.95;;;44.05;;
2652;SDS011;1336;48.692;9.144;2024-01-11T09:31:26;53.42;;;45.78;;
2652;SDS011;1336;48.692;9.144;2024-01-11T09:32:17;53.70;;;45.28;;
2652;SDS011;1336;48.692;9.144;2024-01-11T09:33:08;48.53;;;42.95;;
2652;SDS011;1336;48.692;9.144;2024-01-11T09:34:00;50.65;;;45.15;;
2652;SDS011;1336;48.692;9.144;2024-01-11T09:34:51;53.17;;;44.40;;
2652;SDS011;1336;48.692;9.144;2024-01-11T09:35:42;50.95;;;44.10;;
2652;SDS011;1336;48.692;9.144;2024-01-11T09:36:34;52.88;;;44.40;;
2652;SDS011;1336;48.692;9.144;2024-01-11T09:37:28;53.08;;;44.65;;
2652;SDS011;1336;48.692;9.144;2024-01-11T09:38:22;52.67;;;44.97;;
2652;SDS011;1336;48.692;9.144;2024-01-11T09:39:13;48.05;;;42.65;;
2652;SDS011;1336;48.692;9.144;2024-01-11T09:40:06;52.50;;;45.17;;
2652;SDS011;1336;48.692;9.144;2024-01-11T09:41:04;51.50;;;45.45;;
2652;SDS011;1336;48.692;9.144;2024-01-11T09:41:58;51.47;;;45.25;;
2652;SDS011;1336;48.692;9.144;2024-01-11T09:42:50;55.13;;;46.88;;
2652;SDS011;1336;48.692;9.144;2024-01-11T09:43:42;52.03;;;45.72;;
2652;SDS011;1336;48.692;9.144;2024-01-11T09:44:33;50.42;;;44.88;;
2652;SDS011;1336;48.692;9.144;2024-01-11T09:45:25;52.33;;;44.92;;
2652;SDS011;1336;48.692;9.144;2024-01-11T09:46:16;53.83;;;45.40;;
2652;SDS011;1336;48.692;9.144;2024-01-11T09:47:07;55.30;;;45.22;;
2652;SDS011;1336;48.692;9.144;2024-01-11T09:48:00;52.78;;;45.88;;
2652;SDS011;1336;48.692;9.144;2024-01-11T09:48:52;51.92;;;46.22;;
2652;SDS011;1336;48.692;9.144;2024-01-11T09:49:45;54.03;;;46.58;;
2652;SDS011;1336;48.692;9.144;2024-01-11T09:50:37;53.15;;;45.67;;
2652;SDS011;1336;48.692;9.144;2024-01-11T09:51:29;54.63;;;44.95;;
2652;SDS011;1336;48.692;9.144;2024-01-11T09:52:22;57.33;;;48.28;;
2652;SDS011;1336;48.692;9.144;2024-01-11T09:53:15;52.30;;;46.60;;
2652;SDS011;1336;48.692;9.144;2024-01-11T09:54:08;53.05;;;45.13;;
2652;SDS011;1336;48.692;9.144;2024-01-11T09:55:02;52.10;;;45.75;;
2652;SDS011;1336;48.692;9.144;2024-01-11T09:55:53;51.95;;;45.55;;
2652;SDS011;1336;48.692;9.144;2024-01-11T09:56:44;51.58;;;44.08;;
2652;SDS011;1336;48.692;9.144;2024-01-11T09:57:36;51.67;;;45.80;;
2652;SDS011;1336;48.692;9.144;2024-01-11T09:58:31;53.78;;;45.10;;
2652;SDS011;1336;48.692;9.144;2024-01-11T09:59:26;51.10;;;44.90;;
2652;SDS011;1336;48.692;9.144;2024-01-11T10:00:19;56.38;;;45.15;;
2652;SDS011;1336;48.692;9.144;2024-01-11T10:01:12;53.00;;;45.25;;
2652;SDS011;1336;48.692;9.144;2024-01-11T10:02:05;50.72;;;44.58;;
2652;SDS011;1336;48.692;9.144;2024-01-11T10:02:59;51.83;;;45.85;;
2652;SDS011;1336;48.692;9.144;2024-01-11T10:03:52;54.95;;;45.67;;
2652;SDS011;1336;48.692;9.144;2024-01-11T10:04:43;51.78;;;44.88;;
2652;SDS011;1336;48.692;9.144;2024-01-11T10:05:34;52.53;;;46.58;;
2652;SDS011;1336;48.692;9.144;2024-01-11T10:06:27;50.53;;;45.03;;
2652;SDS011;1336;48.692;9.144;2024-01-11T10:07:19;52.10;;;45.33;;
2652;SDS011;1336;48.692;9.144;2024-01-11T10:08:13;51.55;;;46.05;;
2652;SDS011;1336;48.692;9.144;2024-01-11T10:09:04;55.63;;;47.90;;
2652;SDS011;1336;48.692;9.144;2024-01-11T10:09:56;54.72;;;46.80;;
2652;SDS011;1336;48.692;9.144;2024-01-11T10:10:49;56.47;;;46.50;;
2652;SDS011;1336;48.692;9.144;2024-01-11T10:11:40;54.90;;;48.15;;
2652;SDS011;1336;48.692;9.144;2024-01-11T10:12:31;57.65;;;48.45;;
2652;SDS011;1336;48.692;9.144;2024-01-11T10:13:25;54.45;;;45.13;;
2652;SDS011;1336;48.692;9.144;2024-01-11T10:14:16;53.25;;;46.85;;
2652;SDS011;1336;48.692;9.144;2024-01-11T10:15:08;56.92;;;47.90;;
2652;SDS011;1336;48.692;9.144;2024-01-11T10:16:10;55.10;;;47.30;;
2652;SDS011;1336;48.692;9.144;2024-01-11T10:17:03;52.55;;;45.42;;
2652;SDS011;1336;48.692;9.144;2024-01-11T10:17:55;53.58;;;47.47;;
2652;SDS011;1336;48.692;9.144;2024-01-11T10:18:47;55.38;;;48.10;;
2652;SDS011;1336;48.692;9.144;2024-01-11T10:19:38;55.17;;;47.35;;
2652;SDS011;1336;48.692;9.144;2024-01-11T10:20:29;50.47;;;45.03;;
2652;SDS011;1336;48.692;9.144;2024-01-11T10:21:22;51.67;;;45.28;;
2652;SDS011;1336;48.692;9.144;2024-01-11T10:22:14;54.13;;;46.88;;
2652;SDS011;1336;48.692;9.144;2024-01-11T10:23:07;54.20;;;44.50;;
2652;SDS011;1336;48.692;9.144;2024-01-11T10:23:59;54.35;;;46.40;;
2652;SDS011;1336;48.692;9.144;2024-01-11T10:25:08;52.42;;;46.35;;
2652;SDS011;1336;48.692;9.144;2024-01-11T10:26:01;53.65;;;47.78;;
2652;SDS011;1336;48.692;9.144;2024-01-11T10:26:52;52.08;;;46.08;;
2652;SDS011;1336;48.692;9.144;2024-01-11T10:27:47;53.80;;;46.95;;
2652;SDS011;1336;48.692;9.144;2024-01-11T10:28:38;57.75;;;47.85;;
2652;SDS011;1336;48.692;9.144;2024-01-11T10:29:30;55.97;;;46.10;;
2652;SDS011;1336;48.692;9.144;2024-01-11T10:30:22;51.35;;;44.08;;
2652;SDS011;1336;48.692;9.144;2024-01-11T10:31:15;55.95;;;46.00;;
2652;SDS011;1336;48.692;9.144;2024-01-11T10:32:06;53.83;;;46.63;;
2652;SDS011;1336;48.692;9.144;2024-01-11T10:32:59;53.00;;;45.22;;
2652;SDS011;1336;48.692;9.144;2024-01-11T10:33:50;56.50;;;46.33;;
2652;SDS011;1336;48.692;9.144;2024-01-11T10:34:43;49.67;;;44.38;;
2652;SDS011;1336;48.692;9.144;2024-01-11T10:35:34;50.92;;;44.63;;
2652;SDS011;1336;48.692;9.144;2024-01-11T10:36:25;52.15;;;46.47;;
2652;SDS011;1336;48.692;9.144;2024-01-11T10:37:17;54.00;;;46.15;;
2652;SDS011;1336;48.692;9.144;2024-01-11T10:38:09;54.38;;;47.10;;
2652;SDS011;1336;48.692;9.144;2024-01-11T10:39:01;55.88;;;46.10;;
2652;SDS011;1336;48.692;9.144;2024-01-11T10:39:56;54.25;;;45.80;;
2652;SDS011;1336;48.692;9.144;2024-01-11T10:40:49;52.70;;;45.63;;
2652;SDS011;1336;48.692;9.144;2024-01-11T10:41:41;53.85;;;47.90;;
2652;SDS011;1336;48.692;9.144;2024-01-11T10:42:36;52.60;;;44.75;;
2652;SDS011;1336;48.692;9.144;2024-01-11T10:43:28;55.97;;;47.03;;
2652;SDS011;1336;48.692;9.144;2024-01-11T10:44:22;56.25;;;46.95;;
2652;SDS011;1336;48.692;9.144;2024-01-11T10:45:14;55.03;;;47.10;;
2652;SDS011;1336;48.692;9.144;2024-01-11T10:46:06;52.50;;;45.28;;
2652;SDS011;1336;48.692;9.144;2024-01-11T10:47:02;55.20;;;46.50;;
2652;SDS011;1336;48.692;9.144;2024-01-11T10:47:55;52.53;;;44.92;;
2652;SDS011;1336;48.692;9.144;2024-01-11T10:48:47;57.15;;;46.85;;
2652;SDS011;1336;48.692;9.144;2024-01-11T10:49:39;51.88;;;44.00;;
2652;SDS011;1336;48.692;9.144;2024-01-11T10:50:33;52.88;;;45.30;;
2652;SDS011;1336;48.692;9.144;2024-01-11T10:51:25;57.03;;;48.28;;
2652;SDS011;1336;48.692;9.144;2024-01-11T10:52:19;56.38;;;45.85;;
2652;SDS011;1336;48.692;9.144;2024-01-11T10:53:12;59.45;;;46.72;;
2652;SDS011;1336;48.692;9.144;2024-01-11T10:54:10;55.00;;;47.08;;
2652;SDS011;1336;48.692;9.144;2024-01-11T10:55:04;53.70;;;46.58;;
2652;SDS011;1336;48.692;9.144;2024-01-11T10:55:57;55.38;;;45.85;;
2652;SDS011;1336;48.692;9.144;2024-01-11T10:56:49;64.60;;;46.35;;
2652;SDS011;1336;48.692;9.144;2024-01-11T10:57:41;54.38;;;44.30;;
2652;SDS011;1336;48.692;9.144;2024-01-11T10:58:33;54.60;;;45.72;;
2652;SDS011;1336;48.692;9.144;2024-01-11T10:59:26;52.88;;;46.80;;
2652;SDS011;1336;48.692;9.144;2024-01-11T11:00:17;54.80;;;46.92;;
2652;SDS011;1336;48.692;9.144;2024-01-11T11:01:10;52.58;;;44.75;;
2652;SDS011;1336;48.692;9.144;2024-01-11T11:02:03;52.90;;;46.25;;
2652;SDS011;1336;48.692;9.144;2024-01-11T11:02:56;57.60;;;47.53;;
2652;SDS011;1336;48.692;9.144;2024-01-11T11:03:49;58.47;;;47.42;;
2652;SDS011;1336;48.692;9.144;2024-01-11T11:04:41;53.15;;;45.97;;
2652;SDS011;1336;48.692;9.144;2024-01-11T11:05:34;62.55;;;47.05;;
2652;SDS011;1336;48.692;9.144;2024-01-11T11:06:26;57.90;;;47.47;;
2652;SDS011;1336;48.692;9.144;2024-01-11T11:07:18;60.08;;;45.30;;
2652;SDS011;1336;48.692;9.144;2024-01-11T11:08:10;54.50;;;46.80;;
2652;SDS011;1336;48.692;9.144;2024-01-11T11:09:03;54.45;;;44.35;;
2652;SDS011;1336;48.692;9.144;2024-01-11T11:09:55;50.35;;;43.33;;
2652;SDS011;1336;48.692;9.144;2024-01-11T11:10:47;56.80;;;44.92;;
2652;SDS011;1336;48.692;9.144;2024-01-11T11:11:40;49.35;;;42.60;;
2652;SDS011;1336;48.692;9.144;2024-01-11T11:12:33;54.08;;;44.95;;
2652;SDS011;1336;48.692;9.144;2024-01-11T11:13:26;58.13;;;46.00;;
2652;SDS011;1336;48.692;9.144;2024-01-11T11:14:18;53.92;;;46.70;;